sensor_id;sensor_type;location;lat;lon;timestamp;temperature;humidity
53410;DHT22;66590;50.734;4.246;2023-05-29T00:00:24;16.70;99.90
53410;DHT22;66590;50.734;4.246;2023-05-29T00:02:51;16.60;99.90
53410;DHT22;66590;50.734;4.246;2023-05-29T00:05:19;16.60;99.90
53410;DHT22;66590;50.734;4.246;2023-05-29T00:07:46;16.60;99.90
53410;DHT22;66590;50.734;4.246;2023-05-29T00:10:13;16.50;99.90
53410;DHT22;66590;50.734;4.246;2023-05-29T00:12:42;16.40;99.90
53410;DHT22;66590;50.734;4.246;2023-05-29T00:15:09;16.40;99.90
53410;DHT22;66590;50.734;4.246;2023-05-29T00:17:37;16.40;99.90
53410;DHT22;66590;50.734;4.246;2023-05-29T00:20:05;16.40;99.90
53410;DHT22;66590;50.734;4.246;2023-05-29T00:22:32;16.40;99.90
53410;DHT22;66590;50.734;4.246;2023-05-29T00:24:59;16.40;99.90
53410;DHT22;66590;50.734;4.246;2023-05-29T00:27:35;16.40;99.90
53410;DHT22;66590;50.734;4.246;2023-05-29T00:30:05;16.40;99.90
53410;DHT22;66590;50.734;4.246;2023-05-29T00:32:32;16.30;99.90
53410;DHT22;66590;50.734;4.246;2023-05-29T00:34:59;16.20;99.90
53410;DHT22;66590;50.734;4.246;2023-05-29T00:37:26;16.30;99.90
53410;DHT22;66590;50.734;4.246;2023-05-29T00:39:53;16.30;99.90
53410;DHT22;66590;50.734;4.246;2023-05-29T00:42:20;16.20;99.90
53410;DHT22;66590;50.734;4.246;2023-05-29T00:44:47;16.20;99.90
53410;DHT22;66590;50.734;4.246;2023-05-29T00:47:16;16.10;99.90
53410;DHT22;66590;50.734;4.246;2023-05-29T00:49:43;16.00;99.90
53410;DHT22;66590;50.734;4.246;2023-05-29T00:52:11;15.90;99.90
53410;DHT22;66590;50.734;4.246;2023-05-29T00:54:42;15.90;99.90
53410;DHT22;66590;50.734;4.246;2023-05-29T00:57:10;15.90;99.90
53410;DHT22;66590;50.734;4.246;2023-05-29T00:59:39;15.90;99.90
53410;DHT22;66590;50.734;4.246;2023-05-29T01:02:07;15.80;99.90
53410;DHT22;66590;50.734;4.246;2023-05-29T01:04:37;15.80;99.90
53410;DHT22;66590;50.734;4.246;2023-05-29T01:07:04;15.70;99.90
53410;DHT22;66590;50.734;4.246;2023-05-29T01:09:31;15.70;99.90
53410;DHT22;66590;50.734;4.246;2023-05-29T01:12:03;15.70;99.90
53410;DHT22;66590;50.734;4.246;2023-05-29T01:14:44;15.70;99.90
53410;DHT22;66590;50.734;4.246;2023-05-29T01:17:17;15.60;99.90
53410;DHT22;66590;50.734;4.246;2023-05-29T01:20:16;15.60;99.90
53410;DHT22;66590;50.734;4.246;2023-05-29T01:22:58;15.50;99.90
53410;DHT22;66590;50.734;4.246;2023-05-29T01:25:40;15.40;99.90
53410;DHT22;66590;50.734;4.246;2023-05-29T01:28:11;15.40;99.90
53410;DHT22;66590;50.734;4.246;2023-05-29T01:30:40;15.40;99.90
53410;DHT22;66590;50.734;4.246;2023-05-29T01:33:08;15.30;99.90
53410;DHT22;66590;50.734;4.246;2023-05-29T01:35:36;15.20;99.90
53410;DHT22;66590;50.734;4.246;2023-05-29T01:38:03;15.20;99.90
53410;DHT22;66590;50.734;4.246;2023-05-29T01:40:30;15.10;99.90
53410;DHT22;66590;50.734;4.246;2023-05-29T01:42:58;15.00;99.90
53410;DHT22;66590;50.734;4.246;2023-05-29T01:45:26;15.00;99.90
53410;DHT22;66590;50.734;4.246;2023-05-29T01:47:54;15.00;99.90
53410;DHT22;66590;50.734;4.246;2023-05-29T01:50:23;14.90;99.90
53410;DHT22;66590;50.734;4.246;2023-05-29T01:52:50;14.90;99.90
53410;DHT22;66590;50.734;4.246;2023-05-29T01:55:17;14.90;99.90
53410;DHT22;66590;50.734;4.246;2023-05-29T01:57:45;14.80;99.90
53410;DHT22;66590;50.734;4.246;2023-05-29T02:00:14;14.80;99.90
53410;DHT22;66590;50.734;4.246;2023-05-29T02:02:44;14.70;99.90
53410;DHT22;66590;50.734;4.246;2023-05-29T02:05:11;14.60;99.90
53410;DHT22;66590;50.734;4.246;2023-05-29T02:07:38;14.50;99.90
53410;DHT22;66590;50.734;4.246;2023-05-29T02:10:06;14.50;99.90
53410;DHT22;66590;50.734;4.246;2023-05-29T02:12:33;14.40;99.90
53410;DHT22;66590;50.734;4.246;2023-05-29T02:15:00;14.40;99.90
53410;DHT22;66590;50.734;4.246;2023-05-29T02:17:27;14.30;99.90
53410;DHT22;66590;50.734;4.246;2023-05-29T02:19:55;14.30;99.90
53410;DHT22;66590;50.734;4.246;2023-05-29T02:22:22;14.30;99.90
53410;DHT22;66590;50.734;4.246;2023-05-29T02:24:49;14.20;99.90
53410;DHT22;66590;50.734;4.246;2023-05-29T02:27:17;14.20;99.90
53410;DHT22;66590;50.734;4.246;2023-05-29T02:29:44;14.20;99.90
53410;DHT22;66590;50.734;4.246;2023-05-29T02:32:11;14.10;99.90
53410;DHT22;66590;50.734;4.246;2023-05-29T02:34:38;14.20;99.90
53410;DHT22;66590;50.734;4.246;2023-05-29T02:37:10;14.20;99.90
53410;DHT22;66590;50.734;4.246;2023-05-29T02:39:37;14.20;99.90
53410;DHT22;66590;50.734;4.246;2023-05-29T02:42:05;14.10;99.90
53410;DHT22;66590;50.734;4.246;2023-05-29T02:44:33;14.10;99.90
53410;DHT22;66590;50.734;4.246;2023-05-29T02:47:00;14.00;99.90
53410;DHT22;66590;50.734;4.246;2023-05-29T02:49:27;14.00;99.90
53410;DHT22;66590;50.734;4.246;2023-05-29T02:51:54;13.90;99.90
53410;DHT22;66590;50.734;4.246;2023-05-29T02:54:25;13.90;99.90
53410;DHT22;66590;50.734;4.246;2023-05-29T02:56:52;13.90;99.90
53410;DHT22;66590;50.734;4.246;2023-05-29T02:59:24;13.80;99.90
53410;DHT22;66590;50.734;4.246;2023-05-29T03:01:51;13.90;99.90
53410;DHT22;66590;50.734;4.246;2023-05-29T03:04:19;13.90;99.90
53410;DHT22;66590;50.734;4.246;2023-05-29T03:06:46;13.80;99.90
53410;DHT22;66590;50.734;4.246;2023-05-29T03:09:14;13.80;99.90
53410;DHT22;66590;50.734;4.246;2023-05-29T03:11:42;13.70;99.90
53410;DHT22;66590;50.734;4.246;2023-05-29T03:14:10;13.70;99.90
53410;DHT22;66590;50.734;4.246;2023-05-29T03:16:39;13.70;99.90
53410;DHT22;66590;50.734;4.246;2023-05-29T03:19:07;13.70;99.90
53410;DHT22;66590;50.734;4.246;2023-05-29T03:21:35;13.60;99.90
53410;DHT22;66590;50.734;4.246;2023-05-29T03:24:02;13.60;99.90
53410;DHT22;66590;50.734;4.246;2023-05-29T03:26:29;13.70;99.90
53410;DHT22;66590;50.734;4.246;2023-05-29T03:28:57;13.70;99.90
53410;DHT22;66590;50.734;4.246;2023-05-29T03:31:26;13.60;99.90
53410;DHT22;66590;50.734;4.246;2023-05-29T03:33:53;13.70;99.90
53410;DHT22;66590;50.734;4.246;2023-05-29T03:36:20;13.70;99.90
53410;DHT22;66590;50.734;4.246;2023-05-29T03:38:47;13.60;99.90
53410;DHT22;66590;50.734;4.246;2023-05-29T03:41:15;13.60;99.90
53410;DHT22;66590;50.734;4.246;2023-05-29T03:43:42;13.50;99.90
53410;DHT22;66590;50.734;4.246;2023-05-29T03:46:10;13.40;99.90
53410;DHT22;66590;50.734;4.246;2023-05-29T03:48:38;13.30;99.90
53410;DHT22;66590;50.734;4.246;2023-05-29T03:51:05;13.30;99.90
53410;DHT22;66590;50.734;4.246;2023-05-29T03:53:32;13.30;99.90
53410;DHT22;66590;50.734;4.246;2023-05-29T03:55:59;13.40;99.90
53410;DHT22;66590;50.734;4.246;2023-05-29T03:58:26;13.40;99.90
53410;DHT22;66590;50.734;4.246;2023-05-29T04:00:54;13.30;99.90
53410;DHT22;66590;50.734;4.246;2023-05-29T04:03:22;13.30;99.90
53410;DHT22;66590;50.734;4.246;2023-05-29T04:05:52;13.20;99.90
53410;DHT22;66590;50.734;4.246;2023-05-29T04:08:22;13.30;99.90
53410;DHT22;66590;50.734;4.246;2023-05-29T04:10:50;13.20;99.90
53410;DHT22;66590;50.734;4.246;2023-05-29T04:13:17;13.20;99.90
53410;DHT22;66590;50.734;4.246;2023-05-29T04:15:47;13.20;99.90
53410;DHT22;66590;50.734;4.246;2023-05-29T04:18:14;13.10;99.90
53410;DHT22;66590;50.734;4.246;2023-05-29T04:20:46;13.00;99.90
53410;DHT22;66590;50.734;4.246;2023-05-29T04:23:16;13.00;99.90
53410;DHT22;66590;50.734;4.246;2023-05-29T04:25:43;13.00;99.90
53410;DHT22;66590;50.734;4.246;2023-05-29T04:28:10;13.10;99.90
53410;DHT22;66590;50.734;4.246;2023-05-29T04:30:37;13.00;99.90
53410;DHT22;66590;50.734;4.246;2023-05-29T04:33:04;13.10;99.90
53410;DHT22;66590;50.734;4.246;2023-05-29T04:35:33;13.10;99.90
53410;DHT22;66590;50.734;4.246;2023-05-29T04:38:02;13.10;99.90
53410;DHT22;66590;50.734;4.246;2023-05-29T04:40:29;13.10;99.90
53410;DHT22;66590;50.734;4.246;2023-05-29T04:42:56;13.10;99.90
53410;DHT22;66590;50.734;4.246;2023-05-29T04:45:23;13.20;99.90
53410;DHT22;66590;50.734;4.246;2023-05-29T04:47:50;13.20;99.90
53410;DHT22;66590;50.734;4.246;2023-05-29T04:50:17;13.20;99.90
53410;DHT22;66590;50.734;4.246;2023-05-29T04:52:44;13.20;99.90
53410;DHT22;66590;50.734;4.246;2023-05-29T04:55:13;13.20;99.90
53410;DHT22;66590;50.734;4.246;2023-05-29T04:57:40;13.30;99.90
53410;DHT22;66590;50.734;4.246;2023-05-29T05:00:08;13.20;99.90
53410;DHT22;66590;50.734;4.246;2023-05-29T05:02:35;13.20;99.90
53410;DHT22;66590;50.734;4.246;2023-05-29T05:05:02;13.20;99.90
53410;DHT22;66590;50.734;4.246;2023-05-29T05:07:29;13.20;99.90
53410;DHT22;66590;50.734;4.246;2023-05-29T05:09:56;13.20;99.90
53410;DHT22;66590;50.734;4.246;2023-05-29T05:12:25;13.20;99.90
53410;DHT22;66590;50.734;4.246;2023-05-29T05:14:52;13.20;99.90
53410;DHT22;66590;50.734;4.246;2023-05-29T05:17:19;13.20;99.90
53410;DHT22;66590;50.734;4.246;2023-05-29T05:19:46;13.20;99.90
53410;DHT22;66590;50.734;4.246;2023-05-29T05:22:13;13.20;99.90
53410;DHT22;66590;50.734;4.246;2023-05-29T05:24:40;13.20;99.90
53410;DHT22;66590;50.734;4.246;2023-05-29T05:27:08;13.30;99.90
53410;DHT22;66590;50.734;4.246;2023-05-29T05:29:36;13.40;99.90
53410;DHT22;66590;50.734;4.246;2023-05-29T05:32:04;13.50;99.90
53410;DHT22;66590;50.734;4.246;2023-05-29T05:34:32;13.50;99.90
53410;DHT22;66590;50.734;4.246;2023-05-29T05:36:59;13.60;99.90
53410;DHT22;66590;50.734;4.246;2023-05-29T05:39:26;13.60;99.90
53410;DHT22;66590;50.734;4.246;2023-05-29T05:41:53;13.80;99.90
53410;DHT22;66590;50.734;4.246;2023-05-29T05:44:20;13.80;99.90
53410;DHT22;66590;50.734;4.246;2023-05-29T05:46:48;13.90;99.90
53410;DHT22;66590;50.734;4.246;2023-05-29T05:49:15;14.00;99.90
53410;DHT22;66590;50.734;4.246;2023-05-29T05:51:43;14.30;99.90
53410;DHT22;66590;50.734;4.246;2023-05-29T05:54:10;14.60;99.90
53410;DHT22;66590;50.734;4.246;2023-05-29T05:56:37;14.90;99.90
53410;DHT22;66590;50.734;4.246;2023-05-29T05:59:04;15.30;99.90
53410;DHT22;66590;50.734;4.246;2023-05-29T06:01:31;15.80;99.90
53410;DHT22;66590;50.734;4.246;2023-05-29T06:04:00;16.20;99.90
53410;DHT22;66590;50.734;4.246;2023-05-29T06:06:27;16.30;99.80
53410;DHT22;66590;50.734;4.246;2023-05-29T06:08:54;17.10;99.00
53410;DHT22;66590;50.734;4.246;2023-05-29T06:11:21;17.80;97.10
53410;DHT22;66590;50.734;4.246;2023-05-29T06:13:48;17.90;96.30
53410;DHT22;66590;50.734;4.246;2023-05-29T06:16:15;18.20;95.60
53410;DHT22;66590;50.734;4.246;2023-05-29T06:18:42;18.30;95.40
53410;DHT22;66590;50.734;4.246;2023-05-29T06:21:12;18.60;95.10
53410;DHT22;66590;50.734;4.246;2023-05-29T06:23:39;18.70;94.70
53410;DHT22;66590;50.734;4.246;2023-05-29T06:26:06;18.80;94.50
53410;DHT22;66590;50.734;4.246;2023-05-29T06:28:33;19.00;93.80
53410;DHT22;66590;50.734;4.246;2023-05-29T06:31:00;18.90;94.00
53410;DHT22;66590;50.734;4.246;2023-05-29T06:33:27;18.90;93.50
53410;DHT22;66590;50.734;4.246;2023-05-29T06:35:54;18.70;93.80
53410;DHT22;66590;50.734;4.246;2023-05-29T06:38:23;18.80;93.80
53410;DHT22;66590;50.734;4.246;2023-05-29T06:40:50;19.10;93.40
53410;DHT22;66590;50.734;4.246;2023-05-29T06:43:17;19.00;93.30
53410;DHT22;66590;50.734;4.246;2023-05-29T06:45:44;19.40;92.90
53410;DHT22;66590;50.734;4.246;2023-05-29T06:48:11;19.50;92.80
53410;DHT22;66590;50.734;4.246;2023-05-29T06:50:38;20.10;91.80
53410;DHT22;66590;50.734;4.246;2023-05-29T06:53:05;20.10;91.50
53410;DHT22;66590;50.734;4.246;2023-05-29T06:55:33;20.20;91.50
53410;DHT22;66590;50.734;4.246;2023-05-29T06:58:00;20.60;90.80
53410;DHT22;66590;50.734;4.246;2023-05-29T07:00:27;20.60;90.50
53410;DHT22;66590;50.734;4.246;2023-05-29T07:02:54;20.70;90.50
53410;DHT22;66590;50.734;4.246;2023-05-29T07:05:22;20.20;90.70
53410;DHT22;66590;50.734;4.246;2023-05-29T07:07:49;20.30;90.90
53410;DHT22;66590;50.734;4.246;2023-05-29T07:10:16;20.40;91.00
53410;DHT22;66590;50.734;4.246;2023-05-29T07:12:45;19.80;91.40
53410;DHT22;66590;50.734;4.246;2023-05-29T07:15:12;19.80;91.20
53410;DHT22;66590;50.734;4.246;2023-05-29T07:17:38;19.70;91.20
53410;DHT22;66590;50.734;4.246;2023-05-29T07:20:07;19.80;91.40
53410;DHT22;66590;50.734;4.246;2023-05-29T07:22:35;19.70;91.70
53410;DHT22;66590;50.734;4.246;2023-05-29T07:25:02;19.70;91.70
53410;DHT22;66590;50.734;4.246;2023-05-29T07:27:29;19.70;91.70
53410;DHT22;66590;50.734;4.246;2023-05-29T07:29:58;19.70;91.80
53410;DHT22;66590;50.734;4.246;2023-05-29T07:32:25;20.00;91.20
53410;DHT22;66590;50.734;4.246;2023-05-29T07:34:52;19.40;91.60
53410;DHT22;66590;50.734;4.246;2023-05-29T07:37:19;19.40;91.90
53410;DHT22;66590;50.734;4.246;2023-05-29T07:39:46;19.50;91.80
53410;DHT22;66590;50.734;4.246;2023-05-29T07:42:14;20.00;91.60
53410;DHT22;66590;50.734;4.246;2023-05-29T07:44:41;20.20;91.00
53410;DHT22;66590;50.734;4.246;2023-05-29T07:47:10;20.10;90.80
53410;DHT22;66590;50.734;4.246;2023-05-29T07:49:37;20.20;91.40
53410;DHT22;66590;50.734;4.246;2023-05-29T07:52:05;20.30;91.00
53410;DHT22;66590;50.734;4.246;2023-05-29T07:54:32;20.10;90.90
53410;DHT22;66590;50.734;4.246;2023-05-29T07:56:59;20.10;90.80
53410;DHT22;66590;50.734;4.246;2023-05-29T07:59:26;20.70;90.30
53410;DHT22;66590;50.734;4.246;2023-05-29T08:01:54;20.40;90.10
53410;DHT22;66590;50.734;4.246;2023-05-29T08:04:22;20.60;90.60
53410;DHT22;66590;50.734;4.246;2023-05-29T08:06:49;20.40;90.60
53410;DHT22;66590;50.734;4.246;2023-05-29T08:09:16;20.70;90.00
53410;DHT22;66590;50.734;4.246;2023-05-29T08:11:44;20.90;88.30
53410;DHT22;66590;50.734;4.246;2023-05-29T08:14:11;20.70;88.90
53410;DHT22;66590;50.734;4.246;2023-05-29T08:16:39;20.80;89.30
53410;DHT22;66590;50.734;4.246;2023-05-29T08:19:06;21.00;88.00
53410;DHT22;66590;50.734;4.246;2023-05-29T08:21:35;21.20;87.10
53410;DHT22;66590;50.734;4.246;2023-05-29T08:24:04;21.40;86.30
53410;DHT22;66590;50.734;4.246;2023-05-29T08:26:32;21.50;86.30
53410;DHT22;66590;50.734;4.246;2023-05-29T08:28:59;22.00;84.30
53410;DHT22;66590;50.734;4.246;2023-05-29T08:31:27;22.10;83.10
53410;DHT22;66590;50.734;4.246;2023-05-29T08:33:55;22.40;82.30
53410;DHT22;66590;50.734;4.246;2023-05-29T08:36:22;22.50;82.90
53410;DHT22;66590;50.734;4.246;2023-05-29T08:38:51;22.50;80.90
53410;DHT22;66590;50.734;4.246;2023-05-29T08:41:23;22.60;82.00
53410;DHT22;66590;50.734;4.246;2023-05-29T08:43:53;22.90;80.00
53410;DHT22;66590;50.734;4.246;2023-05-29T08:46:20;23.00;80.00
53410;DHT22;66590;50.734;4.246;2023-05-29T08:48:48;22.90;79.40
53410;DHT22;66590;50.734;4.246;2023-05-29T08:51:19;23.00;79.30
53410;DHT22;66590;50.734;4.246;2023-05-29T08:53:46;22.80;79.50
53410;DHT22;66590;50.734;4.246;2023-05-29T08:56:15;22.20;81.50
53410;DHT22;66590;50.734;4.246;2023-05-29T08:59:01;22.00;82.50
53410;DHT22;66590;50.734;4.246;2023-05-29T09:01:31;22.60;81.90
53410;DHT22;66590;50.734;4.246;2023-05-29T09:03:59;22.60;78.90
53410;DHT22;66590;50.734;4.246;2023-05-29T09:06:26;23.10;77.70
53410;DHT22;66590;50.734;4.246;2023-05-29T09:08:54;23.60;77.30
53410;DHT22;66590;50.734;4.246;2023-05-29T09:11:23;23.40;77.00
53410;DHT22;66590;50.734;4.246;2023-05-29T09:13:52;23.10;77.60
53410;DHT22;66590;50.734;4.246;2023-05-29T09:16:19;23.30;77.30
53410;DHT22;66590;50.734;4.246;2023-05-29T09:18:46;23.80;76.40
53410;DHT22;66590;50.734;4.246;2023-05-29T09:21:25;23.90;76.00
53410;DHT22;66590;50.734;4.246;2023-05-29T09:23:52;23.70;76.60
53410;DHT22;66590;50.734;4.246;2023-05-29T09:26:23;23.70;75.90
53410;DHT22;66590;50.734;4.246;2023-05-29T09:28:50;23.50;75.40
53410;DHT22;66590;50.734;4.246;2023-05-29T09:31:17;23.50;75.60
53410;DHT22;66590;50.734;4.246;2023-05-29T09:33:47;23.10;76.90
53410;DHT22;66590;50.734;4.246;2023-05-29T09:36:19;23.30;76.30
53410;DHT22;66590;50.734;4.246;2023-05-29T09:38:47;23.30;76.50
53410;DHT22;66590;50.734;4.246;2023-05-29T09:41:22;23.40;76.40
53410;DHT22;66590;50.734;4.246;2023-05-29T09:43:50;23.70;75.20
53410;DHT22;66590;50.734;4.246;2023-05-29T09:46:17;23.50;75.50
53410;DHT22;66590;50.734;4.246;2023-05-29T09:48:45;23.70;76.20
53410;DHT22;66590;50.734;4.246;2023-05-29T09:51:19;23.40;76.70
53410;DHT22;66590;50.734;4.246;2023-05-29T09:53:47;22.90;76.80
53410;DHT22;66590;50.734;4.246;2023-05-29T09:56:15;23.00;76.40
53410;DHT22;66590;50.734;4.246;2023-05-29T09:58:44;22.40;78.30
53410;DHT22;66590;50.734;4.246;2023-05-29T10:01:11;22.10;79.80
53410;DHT22;66590;50.734;4.246;2023-05-29T10:03:39;22.40;80.10
53410;DHT22;66590;50.734;4.246;2023-05-29T10:06:07;22.50;79.20
53410;DHT22;66590;50.734;4.246;2023-05-29T10:08:36;22.70;77.60
53410;DHT22;66590;50.734;4.246;2023-05-29T10:11:06;22.80;77.60
53410;DHT22;66590;50.734;4.246;2023-05-29T10:13:36;22.80;77.70
53410;DHT22;66590;50.734;4.246;2023-05-29T10:16:08;22.80;77.30
53410;DHT22;66590;50.734;4.246;2023-05-29T10:18:38;22.90;77.90
53410;DHT22;66590;50.734;4.246;2023-05-29T10:21:07;23.10;76.80
53410;DHT22;66590;50.734;4.246;2023-05-29T10:23:38;23.00;76.70
53410;DHT22;66590;50.734;4.246;2023-05-29T10:26:12;23.00;77.10
53410;DHT22;66590;50.734;4.246;2023-05-29T10:28:42;23.30;75.80
53410;DHT22;66590;50.734;4.246;2023-05-29T10:31:18;22.90;76.40
53410;DHT22;66590;50.734;4.246;2023-05-29T10:34:01;23.20;76.80
53410;DHT22;66590;50.734;4.246;2023-05-29T10:36:34;23.30;76.00
53410;DHT22;66590;50.734;4.246;2023-05-29T10:39:02;23.70;74.90
53410;DHT22;66590;50.734;4.246;2023-05-29T10:41:33;23.80;73.50
53410;DHT22;66590;50.734;4.246;2023-05-29T10:44:00;24.10;72.60
53410;DHT22;66590;50.734;4.246;2023-05-29T10:47:04;23.90;73.70
53410;DHT22;66590;50.734;4.246;2023-05-29T10:49:31;23.90;73.00
53410;DHT22;66590;50.734;4.246;2023-05-29T10:51:58;23.90;74.00
53410;DHT22;66590;50.734;4.246;2023-05-29T10:54:26;23.40;74.20
53410;DHT22;66590;50.734;4.246;2023-05-29T10:56:55;23.40;75.00
53410;DHT22;66590;50.734;4.246;2023-05-29T10:59:23;23.60;75.80
53410;DHT22;66590;50.734;4.246;2023-05-29T11:01:51;23.70;74.10
53410;DHT22;66590;50.734;4.246;2023-05-29T11:04:27;23.80;74.80
53410;DHT22;66590;50.734;4.246;2023-05-29T11:06:55;24.20;73.10
53410;DHT22;66590;50.734;4.246;2023-05-29T11:09:31;24.30;71.00
53410;DHT22;66590;50.734;4.246;2023-05-29T11:12:21;24.30;71.40
53410;DHT22;66590;50.734;4.246;2023-05-29T11:14:54;24.50;72.10
53410;DHT22;66590;50.734;4.246;2023-05-29T11:17:32;24.80;71.80
53410;DHT22;66590;50.734;4.246;2023-05-29T11:20:06;24.80;70.10
53410;DHT22;66590;50.734;4.246;2023-05-29T11:22:51;24.90;70.70
53410;DHT22;66590;50.734;4.246;2023-05-29T11:25:21;24.70;70.30
53410;DHT22;66590;50.734;4.246;2023-05-29T11:27:52;24.70;70.00
53410;DHT22;66590;50.734;4.246;2023-05-29T11:30:19;25.00;69.90
53410;DHT22;66590;50.734;4.246;2023-05-29T11:32:47;25.20;68.10
53410;DHT22;66590;50.734;4.246;2023-05-29T11:35:17;24.90;69.70
53410;DHT22;66590;50.734;4.246;2023-05-29T11:37:45;24.70;70.60
53410;DHT22;66590;50.734;4.246;2023-05-29T11:40:13;24.50;71.90
53410;DHT22;66590;50.734;4.246;2023-05-29T11:42:42;24.40;71.70
53410;DHT22;66590;50.734;4.246;2023-05-29T11:45:11;24.60;70.90
53410;DHT22;66590;50.734;4.246;2023-05-29T11:47:55;24.80;69.20
53410;DHT22;66590;50.734;4.246;2023-05-29T11:50:25;24.90;69.10
53410;DHT22;66590;50.734;4.246;2023-05-29T11:52:53;25.00;69.50
53410;DHT22;66590;50.734;4.246;2023-05-29T11:55:21;24.80;70.80
53410;DHT22;66590;50.734;4.246;2023-05-29T11:57:48;25.10;69.20
53410;DHT22;66590;50.734;4.246;2023-05-29T12:00:17;25.50;66.80
53410;DHT22;66590;50.734;4.246;2023-05-29T12:02:45;25.30;67.60
53410;DHT22;66590;50.734;4.246;2023-05-29T12:05:13;25.10;67.70
53410;DHT22;66590;50.734;4.246;2023-05-29T12:07:48;25.30;68.20
53410;DHT22;66590;50.734;4.246;2023-05-29T12:10:17;25.30;67.50
53410;DHT22;66590;50.734;4.246;2023-05-29T12:12:47;25.40;67.90
53410;DHT22;66590;50.734;4.246;2023-05-29T12:15:15;25.40;66.90
53410;DHT22;66590;50.734;4.246;2023-05-29T12:17:42;25.30;67.70
53410;DHT22;66590;50.734;4.246;2023-05-29T12:20:11;25.20;67.40
53410;DHT22;66590;50.734;4.246;2023-05-29T12:22:41;25.10;67.70
53410;DHT22;66590;50.734;4.246;2023-05-29T12:25:11;25.10;67.80
53410;DHT22;66590;50.734;4.246;2023-05-29T12:27:39;25.40;68.00
53410;DHT22;66590;50.734;4.246;2023-05-29T12:30:07;25.00;68.10
53410;DHT22;66590;50.734;4.246;2023-05-29T12:32:37;24.50;70.10
53410;DHT22;66590;50.734;4.246;2023-05-29T12:35:15;24.60;70.40
53410;DHT22;66590;50.734;4.246;2023-05-29T12:37:47;24.80;67.80
53410;DHT22;66590;50.734;4.246;2023-05-29T12:40:17;24.40;69.30
53410;DHT22;66590;50.734;4.246;2023-05-29T12:42:45;24.50;70.20
53410;DHT22;66590;50.734;4.246;2023-05-29T12:45:12;24.70;69.10
53410;DHT22;66590;50.734;4.246;2023-05-29T12:47:45;24.40;69.20
53410;DHT22;66590;50.734;4.246;2023-05-29T12:50:23;23.90;69.30
53410;DHT22;66590;50.734;4.246;2023-05-29T12:52:57;23.80;70.00
53410;DHT22;66590;50.734;4.246;2023-05-29T12:55:26;24.10;69.80
53410;DHT22;66590;50.734;4.246;2023-05-29T12:57:54;24.30;69.50
53410;DHT22;66590;50.734;4.246;2023-05-29T13:00:22;24.50;67.80
53410;DHT22;66590;50.734;4.246;2023-05-29T13:02:49;24.60;68.60
53410;DHT22;66590;50.734;4.246;2023-05-29T13:05:20;24.60;68.00
53410;DHT22;66590;50.734;4.246;2023-05-29T13:07:47;24.50;68.50
53410;DHT22;66590;50.734;4.246;2023-05-29T13:10:15;24.60;68.10
53410;DHT22;66590;50.734;4.246;2023-05-29T13:12:43;24.60;69.20
53410;DHT22;66590;50.734;4.246;2023-05-29T13:15:12;24.50;69.00
53410;DHT22;66590;50.734;4.246;2023-05-29T13:17:40;24.20;68.60
53410;DHT22;66590;50.734;4.246;2023-05-29T13:20:09;24.20;68.60
53410;DHT22;66590;50.734;4.246;2023-05-29T13:22:37;24.30;69.10
53410;DHT22;66590;50.734;4.246;2023-05-29T13:25:05;24.10;68.90
53410;DHT22;66590;50.734;4.246;2023-05-29T13:27:33;24.10;69.80
53410;DHT22;66590;50.734;4.246;2023-05-29T13:30:02;24.30;69.80
53410;DHT22;66590;50.734;4.246;2023-05-29T13:32:30;24.80;67.40
53410;DHT22;66590;50.734;4.246;2023-05-29T13:34:57;24.80;66.90
53410;DHT22;66590;50.734;4.246;2023-05-29T13:37:24;24.60;67.50
53410;DHT22;66590;50.734;4.246;2023-05-29T13:39:51;24.50;67.10
53410;DHT22;66590;50.734;4.246;2023-05-29T13:42:19;24.30;68.90
53410;DHT22;66590;50.734;4.246;2023-05-29T13:44:46;24.10;68.60
53410;DHT22;66590;50.734;4.246;2023-05-29T13:47:15;24.10;68.60
53410;DHT22;66590;50.734;4.246;2023-05-29T13:49:42;24.50;67.90
53410;DHT22;66590;50.734;4.246;2023-05-29T13:52:09;24.30;69.00
53410;DHT22;66590;50.734;4.246;2023-05-29T13:54:38;24.10;69.50
53410;DHT22;66590;50.734;4.246;2023-05-29T13:57:06;23.90;70.50
53410;DHT22;66590;50.734;4.246;2023-05-29T13:59:34;24.10;69.70
53410;DHT22;66590;50.734;4.246;2023-05-29T14:02:02;24.40;68.50
53410;DHT22;66590;50.734;4.246;2023-05-29T14:04:30;24.60;68.10
53410;DHT22;66590;50.734;4.246;2023-05-29T14:06:58;25.00;68.00
53410;DHT22;66590;50.734;4.246;2023-05-29T14:09:25;25.20;66.60
53410;DHT22;66590;50.734;4.246;2023-05-29T14:11:52;25.30;67.50
53410;DHT22;66590;50.734;4.246;2023-05-29T14:14:19;25.30;65.90
53410;DHT22;66590;50.734;4.246;2023-05-29T14:16:46;24.90;65.70
53410;DHT22;66590;50.734;4.246;2023-05-29T14:19:14;24.90;66.50
53410;DHT22;66590;50.734;4.246;2023-05-29T14:21:43;24.80;66.00
53410;DHT22;66590;50.734;4.246;2023-05-29T14:24:10;24.60;67.00
53410;DHT22;66590;50.734;4.246;2023-05-29T14:26:37;24.60;66.70
53410;DHT22;66590;50.734;4.246;2023-05-29T14:29:04;24.40;66.80
53410;DHT22;66590;50.734;4.246;2023-05-29T14:31:42;24.30;67.40
53410;DHT22;66590;50.734;4.246;2023-05-29T14:34:10;24.50;66.70
53410;DHT22;66590;50.734;4.246;2023-05-29T14:36:38;24.50;67.40
53410;DHT22;66590;50.734;4.246;2023-05-29T14:39:07;24.20;69.30
53410;DHT22;66590;50.734;4.246;2023-05-29T14:41:34;23.90;68.50
53410;DHT22;66590;50.734;4.246;2023-05-29T14:44:01;24.10;68.50
53410;DHT22;66590;50.734;4.246;2023-05-29T14:46:28;24.10;68.60
53410;DHT22;66590;50.734;4.246;2023-05-29T14:48:55;24.20;67.90
53410;DHT22;66590;50.734;4.246;2023-05-29T14:51:22;24.00;67.70
53410;DHT22;66590;50.734;4.246;2023-05-29T14:53:49;24.00;68.40
53410;DHT22;66590;50.734;4.246;2023-05-29T14:56:18;24.10;68.60
53410;DHT22;66590;50.734;4.246;2023-05-29T14:58:45;24.20;68.20
53410;DHT22;66590;50.734;4.246;2023-05-29T15:01:12;23.90;68.50
53410;DHT22;66590;50.734;4.246;2023-05-29T15:03:46;23.90;68.90
53410;DHT22;66590;50.734;4.246;2023-05-29T15:06:14;23.80;67.70
53410;DHT22;66590;50.734;4.246;2023-05-29T15:08:42;23.90;67.70
53410;DHT22;66590;50.734;4.246;2023-05-29T15:11:09;24.00;68.20
53410;DHT22;66590;50.734;4.246;2023-05-29T15:13:38;23.70;68.10
53410;DHT22;66590;50.734;4.246;2023-05-29T15:16:06;23.60;68.90
53410;DHT22;66590;50.734;4.246;2023-05-29T15:18:34;23.40;69.00
53410;DHT22;66590;50.734;4.246;2023-05-29T15:21:01;23.30;69.80
53410;DHT22;66590;50.734;4.246;2023-05-29T15:23:28;23.50;70.10
53410;DHT22;66590;50.734;4.246;2023-05-29T15:25:55;23.50;69.50
53410;DHT22;66590;50.734;4.246;2023-05-29T15:28:23;23.60;69.90
53410;DHT22;66590;50.734;4.246;2023-05-29T15:30:55;23.70;69.50
53410;DHT22;66590;50.734;4.246;2023-05-29T15:33:22;23.80;69.50
53410;DHT22;66590;50.734;4.246;2023-05-29T15:35:49;23.80;69.50
53410;DHT22;66590;50.734;4.246;2023-05-29T15:38:17;23.60;70.00